createdAt,value
2017-12-10T00:02:08.565Z,7.07
2017-12-10T00:04:36.613Z,5.55
2017-12-10T00:07:05.450Z,6.28
2017-12-10T00:09:33.519Z,4.18
2017-12-10T00:12:01.573Z,4.95
2017-12-10T00:14:29.642Z,4.87
2017-12-10T00:16:57.700Z,5.03
2017-12-10T00:19:26.605Z,10.30
2017-12-10T00:21:54.657Z,8.57
2017-12-10T00:24:23.461Z,5.68
2017-12-10T00:26:51.521Z,7.65
2017-12-10T00:29:20.441Z,9.23
2017-12-10T00:31:48.605Z,7.30
2017-12-10T00:34:16.677Z,9.40
2017-12-10T00:36:44.849Z,8.38
2017-12-10T00:39:12.927Z,6.55
2017-12-10T00:41:40.972Z,4.43
2017-12-10T00:44:09.890Z,6.07
2017-12-10T00:46:37.977Z,3.83
2017-12-10T00:49:06.137Z,6.85
2017-12-10T00:51:34.205Z,4.10
2017-12-10T00:54:02.282Z,4.07
2017-12-10T00:56:30.345Z,4.50
2017-12-10T00:58:58.401Z,4.32
2017-12-10T01:01:26.449Z,3.75
2017-12-10T01:03:54.566Z,3.85
2017-12-10T01:06:28.569Z,5.80
2017-12-10T01:08:57.056Z,5.50
2017-12-10T01:11:25.108Z,7.53
2017-12-10T01:13:53.165Z,4.95
2017-12-10T01:16:21.981Z,7.25
2017-12-10T01:18:50.050Z,6.80
2017-12-10T01:21:18.489Z,2.85
2017-12-10T01:23:46.613Z,4.90
2017-12-10T01:26:14.681Z,6.12
2017-12-10T01:28:42.857Z,5.35
2017-12-10T01:31:10.924Z,8.30
2017-12-10T01:33:38.969Z,6.28
2017-12-10T01:36:07.793Z,4.90
2017-12-10T01:38:35.857Z,3.62
2017-12-10T01:41:03.901Z,3.47
2017-12-10T01:43:32.725Z,6.90
2017-12-10T01:46:00.796Z,4.35
2017-12-10T01:48:29.258Z,4.50
2017-12-10T01:50:57.339Z,3.83
2017-12-10T01:53:26.137Z,4.43
2017-12-10T01:55:54.312Z,5.12
2017-12-10T01:58:22.403Z,3.67
2017-12-10T02:00:50.462Z,7.28
2017-12-10T02:03:18.529Z,6.72
2017-12-10T02:05:46.603Z,4.22
2017-12-10T02:08:14.668Z,3.20
2017-12-10T02:10:42.717Z,9.63
2017-12-10T02:13:11.558Z,4.70
2017-12-10T02:15:39.606Z,13.40
2017-12-10T02:18:07.784Z,12.15
2017-12-10T02:20:35.852Z,5.10
2017-12-10T02:23:03.936Z,4.72
2017-12-10T02:25:32.801Z,5.53
2017-12-10T02:28:00.884Z,7.97
2017-12-10T02:30:29.056Z,3.75
2017-12-10T02:32:57.134Z,5.60
2017-12-10T02:35:25.193Z,9.15
2017-12-10T02:37:53.259Z,5.78
2017-12-10T02:40:21.346Z,5.35
2017-12-10T02:42:49.417Z,6.90
2017-12-10T02:45:17.589Z,3.40
2017-12-10T02:47:45.637Z,8.35
2017-12-10T02:50:15.065Z,5.28
2017-12-10T02:52:44.333Z,5.40
2017-12-10T02:55:13.157Z,4.95
2017-12-10T02:57:41.212Z,9.52
2017-12-10T03:00:09.302Z,4.30
2017-12-10T03:02:37.364Z,6.62
2017-12-10T03:05:05.409Z,9.20
2017-12-10T03:07:34.224Z,13.65
2017-12-10T03:10:02.289Z,5.47
2017-12-10T03:12:30.376Z,10.02
2017-12-10T03:14:58.445Z,7.28
2017-12-10T03:17:26.525Z,4.40
2017-12-10T03:19:55.409Z,8.70
2017-12-10T03:22:23.483Z,10.90
2017-12-10T03:24:51.532Z,5.40
2017-12-10T03:27:20.346Z,6.72
2017-12-10T03:29:48.416Z,8.52
2017-12-10T03:32:16.501Z,5.50
2017-12-10T03:34:44.561Z,4.15
2017-12-10T03:37:12.621Z,9.07
2017-12-10T03:39:40.701Z,5.00
2017-12-10T03:42:08.753Z,5.30
2017-12-10T03:44:36.845Z,10.93
2017-12-10T03:47:04.908Z,10.43
2017-12-10T03:49:32.952Z,4.65
2017-12-10T03:52:01.877Z,10.05
2017-12-10T03:54:29.937Z,7.90
2017-12-10T03:56:58.849Z,6.53
2017-12-10T03:59:26.913Z,5.05
2017-12-10T04:01:54.977Z,12.68
2017-12-10T04:04:23.056Z,7.32
2017-12-10T04:06:51.118Z,4.43
2017-12-10T04:09:19.201Z,7.62
2017-12-10T04:11:47.245Z,8.35
2017-12-10T04:14:16.051Z,5.60
2017-12-10T04:16:44.133Z,6.47
2017-12-10T04:19:12.204Z,6.90
2017-12-10T04:21:40.281Z,5.15
2017-12-10T04:24:08.331Z,6.45
2017-12-10T04:26:37.137Z,12.50
2017-12-10T04:29:05.981Z,5.28
2017-12-10T04:31:34.101Z,8.20
2017-12-10T04:34:02.157Z,6.12
2017-12-10T04:36:30.248Z,8.93
2017-12-10T04:38:58.317Z,6.87
2017-12-10T04:41:26.357Z,7.28
2017-12-10T04:43:55.185Z,6.55
2017-12-10T04:46:23.248Z,6.00
2017-12-10T04:48:51.317Z,10.98
2017-12-10T04:51:19.392Z,8.80
2017-12-10T04:53:47.464Z,5.65
2017-12-10T04:56:15.550Z,8.85
2017-12-10T04:58:43.709Z,7.82
2017-12-10T05:01:11.786Z,7.47
2017-12-10T05:03:39.857Z,4.53
2017-12-10T05:06:07.908Z,10.85
2017-12-10T05:08:35.953Z,6.80
2017-12-10T05:11:04.005Z,8.55
2017-12-10T05:13:32.061Z,5.65
2017-12-10T05:16:00.124Z,18.25
2017-12-10T05:18:28.169Z,5.53
2017-12-10T05:20:56.222Z,9.95
2017-12-10T05:23:25.145Z,11.02
2017-12-10T05:25:53.217Z,6.18
2017-12-10T05:28:21.289Z,8.43
2017-12-10T05:30:49.768Z,9.98
2017-12-10T05:33:17.812Z,6.32
2017-12-10T05:35:46.733Z,6.72
2017-12-10T05:38:14.809Z,9.43
2017-12-10T05:40:42.857Z,7.30
2017-12-10T05:43:10.908Z,9.40
2017-12-10T05:45:39.840Z,7.72
2017-12-10T05:48:07.909Z,6.45
2017-12-10T05:50:35.956Z,9.82
2017-12-10T05:53:04.931Z,7.12
2017-12-10T05:55:32.981Z,6.68
2017-12-10T05:58:01.120Z,11.07
2017-12-10T06:00:29.581Z,6.90
2017-12-10T06:02:58.493Z,5.53
2017-12-10T06:05:27.385Z,13.10
2017-12-10T06:07:55.905Z,10.43
2017-12-10T06:10:23.949Z,6.50
2017-12-10T06:12:52.849Z,6.22
2017-12-10T06:15:20.901Z,6.32
2017-12-10T06:17:48.957Z,9.27
2017-12-10T06:20:17.784Z,9.30
2017-12-10T06:22:46.229Z,5.97
2017-12-10T06:25:14.720Z,8.77
2017-12-10T06:27:42.951Z,8.55
2017-12-10T06:30:11.792Z,8.13
2017-12-10T06:32:39.828Z,6.62
2017-12-10T06:35:08.658Z,11.23
2017-12-10T06:37:36.820Z,5.53
2017-12-10T06:40:05.272Z,8.15
2017-12-10T06:42:34.098Z,7.68
2017-12-10T06:45:02.559Z,10.23
2017-12-10T06:47:30.649Z,6.00
2017-12-10T06:49:58.700Z,14.05
2017-12-10T06:52:26.765Z,4.90
2017-12-10T06:54:55.577Z,7.62
2017-12-10T06:57:23.648Z,6.82
2017-12-10T06:59:51.709Z,7.90
2017-12-10T07:02:19.796Z,5.68
2017-12-10T07:04:48.276Z,10.48
2017-12-10T07:07:16.724Z,8.23
2017-12-10T07:09:45.549Z,5.37
2017-12-10T07:12:13.749Z,6.75
2017-12-10T07:14:42.558Z,6.05
2017-12-10T07:17:10.624Z,6.60
2017-12-10T07:19:40.168Z,7.45
2017-12-10T07:22:08.262Z,6.12
2017-12-10T07:24:36.305Z,5.60
2017-12-10T07:27:05.113Z,4.18
2017-12-10T07:29:33.176Z,5.75
2017-12-10T07:32:01.620Z,7.15
2017-12-10T07:34:29.761Z,5.50
2017-12-10T07:36:58.568Z,4.65
2017-12-10T07:39:26.733Z,6.93
2017-12-10T07:41:54.880Z,4.18
2017-12-10T07:44:23.057Z,5.68
2017-12-10T07:46:51.497Z,4.87
2017-12-10T07:49:20.308Z,5.00
2017-12-10T07:51:48.428Z,6.68
2017-12-10T07:54:16.489Z,4.57
2017-12-10T07:56:44.647Z,6.95
2017-12-10T07:59:13.844Z,3.30
2017-12-10T08:01:41.880Z,3.65
2017-12-10T08:04:10.724Z,10.63
2017-12-10T08:06:38.760Z,5.80
2017-12-10T08:09:06.813Z,5.45
2017-12-10T08:11:35.650Z,3.90
2017-12-10T08:14:03.708Z,6.85
2017-12-10T08:16:32.191Z,6.65
2017-12-10T08:19:00.361Z,3.25
2017-12-10T08:21:28.433Z,3.20
2017-12-10T08:23:56.508Z,6.72
2017-12-10T08:26:24.576Z,5.15
2017-12-10T08:28:52.653Z,4.10
2017-12-10T08:31:20.700Z,2.45
2017-12-10T08:33:49.613Z,7.40
2017-12-10T08:36:17.656Z,7.25
2017-12-10T08:38:46.469Z,2.35
2017-12-10T08:41:14.530Z,7.50
2017-12-10T08:43:43.333Z,3.72
2017-12-10T08:46:11.392Z,5.40
2017-12-10T08:48:39.475Z,5.37
2017-12-10T08:51:07.521Z,3.87
2017-12-10T08:53:36.489Z,6.07
2017-12-10T08:56:05.328Z,7.43
2017-12-10T08:58:33.785Z,3.53
2017-12-10T09:01:02.705Z,4.10
2017-12-10T09:03:30.773Z,2.20
2017-12-10T09:05:58.839Z,4.43
2017-12-10T09:08:26.882Z,7.60
2017-12-10T09:10:55.704Z,3.40
2017-12-10T09:13:23.748Z,4.95
2017-12-10T09:15:52.669Z,4.50
2017-12-10T09:18:20.720Z,4.80
2017-12-10T09:20:48.817Z,2.85
2017-12-10T09:23:17.282Z,6.93
2017-12-10T09:25:45.320Z,7.25
2017-12-10T09:28:13.366Z,5.35
2017-12-10T09:30:41.533Z,7.68
2017-12-10T09:33:09.601Z,6.32
2017-12-10T09:35:37.653Z,8.55
2017-12-10T09:38:05.725Z,13.80
2017-12-10T09:40:33.795Z,4.28
2017-12-10T09:43:01.837Z,2.90
2017-12-10T09:45:30.673Z,3.55
2017-12-10T09:47:58.833Z,4.12
2017-12-10T09:50:26.905Z,3.87
2017-12-10T09:52:54.981Z,4.80
2017-12-10T09:55:23.044Z,5.40
2017-12-10T09:57:51.089Z,2.92
2017-12-10T10:00:20.013Z,4.47
2017-12-10T10:02:48.087Z,4.97
2017-12-10T10:05:16.543Z,5.70
2017-12-10T10:07:45.353Z,3.30
2017-12-10T10:10:13.405Z,3.10
2017-12-10T10:12:41.913Z,3.08
2017-12-10T10:15:10.373Z,2.28
2017-12-10T10:17:38.433Z,3.20
2017-12-10T10:20:06.868Z,6.68
2017-12-10T10:22:35.013Z,6.65
2017-12-10T10:25:03.056Z,4.87
2017-12-10T10:27:31.496Z,6.50
2017-12-10T10:29:59.641Z,4.78
2017-12-10T10:32:27.713Z,5.43
2017-12-10T10:34:55.773Z,3.80
2017-12-10T10:37:23.818Z,6.10
2017-12-10T10:39:52.748Z,2.75
2017-12-10T10:42:21.185Z,11.00
2017-12-10T10:44:49.296Z,8.57
2017-12-10T10:47:17.365Z,3.75
2017-12-10T10:49:45.441Z,2.90
2017-12-10T10:52:13.519Z,3.00
2017-12-10T10:54:41.573Z,4.28
2017-12-10T10:57:09.617Z,5.68
2017-12-10T10:59:37.724Z,3.45
2017-12-10T11:02:06.208Z,3.03
2017-12-10T11:04:34.265Z,6.55
2017-12-10T11:07:02.348Z,5.00
2017-12-10T11:09:30.409Z,8.70
2017-12-10T11:11:58.501Z,5.00
2017-12-10T11:14:27.309Z,2.42
2017-12-10T11:16:55.873Z,3.40
2017-12-10T11:19:23.940Z,6.40
2017-12-10T11:21:52.041Z,4.62
2017-12-10T11:24:20.812Z,5.40
2017-12-10T11:26:48.857Z,5.90
2017-12-10T11:29:16.945Z,6.03
2017-12-10T11:31:45.001Z,4.55
2017-12-10T11:34:13.065Z,6.22
2017-12-10T11:36:41.872Z,4.45
2017-12-10T11:39:09.921Z,6.22
2017-12-10T11:41:38.840Z,6.22
2017-12-10T11:44:07.737Z,4.07
2017-12-10T11:46:36.189Z,4.22
2017-12-10T11:49:04.997Z,4.80
2017-12-10T11:51:33.066Z,3.40
2017-12-10T11:54:01.105Z,7.45
2017-12-10T11:56:29.224Z,2.78
2017-12-10T11:58:57.292Z,3.30
2017-12-10T12:01:25.354Z,2.95
2017-12-10T12:03:53.432Z,8.18
2017-12-10T12:06:21.471Z,2.20
2017-12-10T12:08:49.985Z,3.95
2017-12-10T12:11:18.437Z,3.95
2017-12-10T12:13:47.257Z,5.25
2017-12-10T12:16:15.329Z,5.55
2017-12-10T12:18:43.500Z,3.92
2017-12-10T12:21:11.549Z,6.50
2017-12-10T12:23:40.464Z,5.82
2017-12-10T12:26:08.945Z,3.87
2017-12-10T12:28:37.008Z,3.97
2017-12-10T12:31:05.052Z,6.82
2017-12-10T12:33:33.869Z,5.15
2017-12-10T12:36:01.906Z,5.80
2017-12-10T12:38:30.007Z,4.43
2017-12-10T12:40:58.825Z,8.13
2017-12-10T12:43:26.887Z,7.10
2017-12-10T12:45:54.937Z,3.03
2017-12-10T12:48:23.060Z,4.25
2017-12-10T12:50:51.202Z,4.85
2017-12-10T12:53:19.654Z,5.03
2017-12-10T12:55:48.101Z,2.92
2017-12-10T12:58:16.252Z,2.90
2017-12-10T13:00:44.309Z,3.15
2017-12-10T13:03:12.353Z,2.72
2017-12-10T13:05:41.190Z,3.17
2017-12-10T13:08:09.345Z,3.67
2017-12-10T13:10:37.437Z,3.08
2017-12-10T13:13:05.521Z,3.80
2017-12-10T13:15:33.581Z,5.40
2017-12-10T13:18:01.625Z,4.70
2017-12-10T13:20:29.700Z,3.58
2017-12-10T13:22:57.747Z,4.85
2017-12-10T13:25:26.665Z,3.95
2017-12-10T13:27:54.732Z,4.82
2017-12-10T13:30:22.811Z,5.10
2017-12-10T13:32:50.865Z,3.08
2017-12-10T13:35:18.954Z,3.70
2017-12-10T13:37:47.038Z,3.25
2017-12-10T13:40:15.505Z,4.30
2017-12-10T13:42:43.564Z,2.97
2017-12-10T13:45:11.649Z,4.65
2017-12-10T13:47:40.472Z,4.00
2017-12-10T13:50:08.525Z,3.95
2017-12-10T13:52:36.988Z,2.75
2017-12-10T13:55:05.165Z,2.87
2017-12-10T13:57:33.241Z,3.55
2017-12-10T14:00:01.313Z,4.40
2017-12-10T14:02:29.382Z,4.70
2017-12-10T14:04:57.452Z,3.30
2017-12-10T14:07:25.630Z,3.15
2017-12-10T14:09:53.672Z,7.55
2017-12-10T14:12:22.589Z,5.78
2017-12-10T14:14:50.660Z,7.50
2017-12-10T14:17:18.696Z,7.07
2017-12-10T14:19:47.504Z,5.10
2017-12-10T14:22:15.609Z,4.82
2017-12-10T14:24:43.661Z,4.40
2017-12-10T14:27:11.737Z,4.70
2017-12-10T14:29:39.780Z,6.20
2017-12-10T14:32:08.705Z,5.95
2017-12-10T14:34:36.745Z,9.82
2017-12-10T14:37:05.595Z,8.55
2017-12-10T14:39:33.737Z,6.62
2017-12-10T14:42:01.780Z,5.70
2017-12-10T14:44:30.593Z,5.55
2017-12-10T14:46:59.067Z,5.35
2017-12-10T14:49:28.676Z,6.10
2017-12-10T14:51:56.870Z,8.38
2017-12-10T14:54:24.932Z,9.02
2017-12-10T14:56:52.996Z,7.50
2017-12-10T14:59:21.080Z,8.50
2017-12-10T15:01:49.255Z,7.97
2017-12-10T15:04:17.317Z,11.18
2017-12-10T15:06:45.805Z,7.70
2017-12-10T15:09:13.863Z,7.72
2017-12-10T15:11:41.920Z,10.20
2017-12-10T15:14:10.848Z,9.30
2017-12-10T15:16:39.665Z,11.82
2017-12-10T15:19:07.800Z,14.15
2017-12-10T15:21:35.853Z,12.10
2017-12-10T15:24:03.929Z,17.55
2017-12-10T15:26:31.977Z,9.07
2017-12-10T15:29:00.088Z,11.52
2017-12-10T15:31:28.405Z,7.53
2017-12-10T15:33:56.461Z,10.52
2017-12-10T15:36:24.513Z,9.23
2017-12-10T15:38:52.584Z,9.90
2017-12-10T15:41:20.661Z,7.28
2017-12-10T15:43:48.708Z,7.32
2017-12-10T15:46:17.538Z,7.45
2017-12-10T15:48:46.792Z,8.38
2017-12-10T15:51:14.817Z,8.75
2017-12-10T15:53:42.873Z,7.95
2017-12-10T15:56:10.920Z,10.05
2017-12-10T15:58:39.005Z,8.05
2017-12-10T16:01:07.057Z,9.52
2017-12-10T16:03:35.969Z,9.10
2017-12-10T16:06:04.044Z,7.68
2017-12-10T16:08:32.109Z,9.52
2017-12-10T16:11:00.569Z,10.65
2017-12-10T16:13:29.488Z,11.82
2017-12-10T16:15:57.533Z,13.50
2017-12-10T16:18:25.631Z,9.15
2017-12-10T16:20:53.701Z,14.35
2017-12-10T16:23:21.773Z,11.73
2017-12-10T16:25:49.841Z,12.13
2017-12-10T16:28:17.914Z,12.75
2017-12-10T16:30:46.094Z,11.20
2017-12-10T16:33:14.178Z,11.02
2017-12-10T16:35:42.225Z,10.63
2017-12-10T16:38:10.304Z,10.50
2017-12-10T16:40:38.386Z,10.65
2017-12-10T16:43:06.829Z,12.10
2017-12-10T16:45:35.644Z,12.73
2017-12-10T16:48:03.721Z,9.43
2017-12-10T16:50:32.726Z,11.82
2017-12-10T16:53:00.789Z,11.07
2017-12-10T16:55:28.957Z,10.48
2017-12-10T16:57:57.000Z,10.77
2017-12-10T17:00:25.922Z,9.32
2017-12-10T17:02:54.373Z,12.77
2017-12-10T17:05:22.837Z,10.55
2017-12-10T17:07:52.489Z,10.02
2017-12-10T17:10:20.541Z,12.13
2017-12-10T17:12:48.654Z,14.43
2017-12-10T17:15:16.822Z,10.73
2017-12-10T17:17:44.976Z,9.85
2017-12-10T17:20:13.057Z,15.18
2017-12-10T17:22:41.117Z,11.48
2017-12-10T17:25:09.301Z,9.05
2017-12-10T17:27:37.373Z,9.95
2017-12-10T17:30:05.482Z,12.85
2017-12-10T17:32:33.544Z,8.75
2017-12-10T17:35:01.580Z,9.52
2017-12-10T17:37:29.667Z,11.20
2017-12-10T17:39:57.734Z,8.38
2017-12-10T17:42:25.805Z,9.68
2017-12-10T17:44:53.844Z,11.27
2017-12-10T17:47:22.657Z,10.57
2017-12-10T17:49:50.739Z,15.10
2017-12-10T17:52:18.789Z,13.15
2017-12-10T17:54:47.710Z,10.77
2017-12-10T17:57:15.777Z,10.93
2017-12-10T17:59:43.866Z,10.07
2017-12-10T18:02:11.958Z,10.68
2017-12-10T18:04:40.365Z,13.15
2017-12-10T18:07:09.301Z,19.02
2017-12-10T18:09:37.420Z,8.68
2017-12-10T18:12:05.538Z,9.85
2017-12-10T18:14:33.609Z,12.63
2017-12-10T18:17:01.685Z,10.07
2017-12-10T18:19:29.765Z,13.60
2017-12-10T18:21:57.813Z,12.05
2017-12-10T18:24:27.032Z,9.27
2017-12-10T18:26:55.109Z,19.55
2017-12-10T18:29:23.244Z,23.62
2017-12-10T18:31:51.353Z,15.93
2017-12-10T18:34:19.457Z,18.17
2017-12-10T18:36:47.621Z,13.82
2017-12-10T18:39:15.669Z,12.20
2017-12-10T18:41:43.821Z,11.65
2017-12-10T18:44:12.637Z,12.48
2017-12-10T18:46:40.685Z,13.60
2017-12-10T18:49:09.605Z,8.90
2017-12-10T18:51:37.656Z,10.68
2017-12-10T18:54:05.701Z,10.75
2017-12-10T18:56:33.765Z,13.95
2017-12-10T18:59:01.885Z,14.07
2017-12-10T19:01:29.929Z,9.68
2017-12-10T19:03:58.849Z,14.40
2017-12-10T19:06:26.921Z,13.98
2017-12-10T19:08:54.992Z,16.35
2017-12-10T19:11:23.090Z,15.30
2017-12-10T19:13:51.137Z,14.68
2017-12-10T19:16:19.192Z,8.07
2017-12-10T19:18:47.277Z,13.70
2017-12-10T19:21:15.457Z,10.95
2017-12-10T19:23:44.345Z,12.23
2017-12-10T19:26:12.396Z,13.55
2017-12-10T19:28:40.461Z,13.43
2017-12-10T19:31:09.276Z,9.43
2017-12-10T19:33:37.349Z,14.98
2017-12-10T19:36:05.409Z,9.35
2017-12-10T19:38:33.493Z,16.15
2017-12-10T19:41:01.673Z,15.73
2017-12-10T19:43:29.741Z,13.02
2017-12-10T19:45:57.824Z,15.13
2017-12-10T19:48:25.991Z,10.95
2017-12-10T19:50:54.057Z,13.68
2017-12-10T19:53:22.129Z,8.57
2017-12-10T19:55:50.213Z,8.60
2017-12-10T19:58:18.281Z,7.20
2017-12-10T20:00:46.390Z,9.10
2017-12-10T20:03:14.829Z,13.13
2017-12-10T20:05:42.888Z,12.48
2017-12-10T20:08:10.970Z,12.45
2017-12-10T20:10:39.041Z,8.93
2017-12-10T20:13:08.236Z,10.90
2017-12-10T20:15:36.297Z,13.68
2017-12-10T20:18:04.344Z,11.65
2017-12-10T20:20:33.273Z,11.82
2017-12-10T20:23:01.428Z,12.07
2017-12-10T22:48:14.753Z,4.83
2017-12-10T22:50:43.557Z,3.20
